White Mountain Summit Weather observations

Data are for 10 minute period ending at time listed.
 Day   Time   Solar   Ave.   Ave.  Ave.  Vector    Max.    Baro.  
  of    of     Rad.   Air    Rel.  Wind   Wind     Wind   Press.  
Year   Day            Temp.  Hum.  Speed  Dir.     Gust           
2014   (PST)   W/m2    F      %     mph   deg.      mph     mb.   
-------------------------------------------------------------------
 258   21:20    0.0    38   78.6    19    234.6    25.9   999.0 
 258   21:30    0.0    37   78.5    16    235.1    23.5   999.0 
 258   21:40    0.0    37   78.4    18    232.6    23.5   999.0 
 258   21:50    0.0    37   78.2    20    237.9    28.2   999.0 
 258   22:00    0.0    37   78.2    19    235.0    25.9   999.0 
 258   22:10    0.0    37   78.0    19    238.7    25.9   999.0 
 258   22:20    0.0    37   77.2    19    235.9    25.9   999.0 
 258   22:30    0.0    36   77.1    18    234.2    23.5   999.0 
 258   22:40    0.0    36   77.2    20    231.0    25.9   999.0 
 258   22:50    0.0    36   77.6    20    226.5    25.9   999.0 
 258   23:00    0.0    36   78.0    22    231.0    28.2   999.0 
 258   23:10    0.0    36   78.2    20    238.4    23.5   999.0 
 258   23:20    0.0    36   78.4    20    229.1    28.2   999.0 
 258   23:30    0.0    36   79.0    22    228.4    28.2   999.0 
 258   23:40    0.0    36   79.7    24    223.3    30.6   999.0 
 258   23:50    0.0    36   80.5    24    227.0    30.6   999.0 
 259    0:00    0.0    35   81.9    24    227.9    30.6   999.0 
 259    0:10    0.0    35   82.8    23    233.9    28.2   999.0 
 259    0:20    0.0    35   83.4    23    236.1    30.6   999.0 
 259    0:30    0.0    35   83.9    25    230.5    30.6   999.0 
 259    0:40    0.0    35   85.3    26    227.4    30.6   999.0 
 259    0:50    0.0    35   86.2    27    224.8    33.0   999.0 
 259    1:00    0.0    35   86.6    24    225.9    33.0   999.0 
 259    1:10    0.0    35   87.0    24    230.5    30.6   999.0 
 259    1:20    0.0    35   87.4    24    225.7    37.7   999.0 
 259    1:30    0.0    35   87.8    23    222.4    30.6   999.0 
 259    1:40    0.0    35   87.1    23    230.4    30.6   999.0 
 259    1:50    0.0    35   88.0    25    231.1    33.0   999.0 
 259    2:00    0.0    35   88.6    26    230.4    33.0   999.0 
 259    2:10    0.0    35   87.7    28    227.7    37.7   999.0 
 259    2:20    0.0    35   85.8    29    233.5    37.7   999.0 
 259    2:30    0.0    35   85.0    27    226.7    33.0   999.0 
 259    2:40    0.0    35   84.7    26    227.4    35.3   999.0 
 259    2:50    0.0    35   84.6    24    226.3    30.6   999.0 
 259    3:00    0.0    35   83.9    25    226.6    37.7   999.0 
 259    3:10    0.0    35   86.0    23    223.4    33.0   999.0 
 259    3:20    0.0    35   85.1    24    221.3    30.6   999.0 
 259    3:30    0.0    35   84.9    24    219.5    30.6   999.0 
 259    3:40    0.0    34   86.8    25    229.4    33.0   999.0 
 259    3:50    0.0    34   87.4    22    225.4    28.2   999.0 
 259    4:00    0.0    34   87.3    22    231.6    28.2   999.0 
 259    4:10    0.0    34   85.5    24    221.3    33.0   999.0 
 259    4:20    0.0    34   83.8    26    225.8    37.7   999.0 
 259    4:30    0.0    34   83.0    26    226.0    35.3   999.0 
 259    4:40    0.0    34   81.1    27    229.7    35.3   999.0 
 259    4:50    0.0    34   80.8    29    238.7    42.4   999.0 
 259    5:00    0.0    34   82.4    26    233.7    33.0   999.0 
 259    5:10    0.0    34   80.7    26    228.1    37.7   999.0 
 259    5:20    0.0    34   79.7    30    228.2    40.0   999.0 
 259    5:30    0.0    34   83.5    32    224.3    35.3   999.0 
 259    5:40    0.0    34   84.4    30    228.0    37.7   999.0 
 259    5:50    0.0    34   84.9    26    228.7    33.0   999.0 
 259    6:00    0.0    34   84.2    25    227.9    30.6   999.0 
 259    6:10    0.0    34   83.2    26    223.9    33.0   999.0 
 259    6:20    0.0    34   81.0    29    221.1    33.0   999.0 
 259    6:30    0.0    34   81.9    26    224.3    30.6   999.0 
 259    6:40    0.0    34   81.6    25    232.3    35.3   999.0 
 259    6:50    0.0    34   80.3    26    224.4    30.6   999.0 
 259    7:00    0.0    34   81.8    27    218.6    33.0   999.0 
 259    7:10    0.0    34   82.5    28    219.2    33.0   999.0 
 259    7:20    0.0    34   82.4    27    219.6    33.0   999.0 
 259    7:30    0.0    34   83.2    27    221.5    33.0   999.0 
 259    7:40    0.0    34   80.2    25    223.2    30.6   999.0 
 259    7:50    0.0    35   79.5    24    219.5    33.0   999.0 
 259    8:00    0.0    35   79.0    21    220.0    28.2   999.0 
 259    8:10    0.0    35   80.1    22    216.2    30.6   999.0 
 259    8:20    0.0    35   79.6    21    222.0    28.2   999.0 
 259    8:30    0.0    35   79.5    20    218.8    28.2   999.0 
 259    8:40    0.0    36   79.9    19    215.4    23.5   999.0 
 259    8:50    0.0    36   78.1    17    211.3    23.5   999.0 
 259    9:00    0.0    37   75.5    16    202.3    21.2   999.0 
 259    9:10    0.0    37   72.0    15    190.9    18.8   999.0 
 259    9:20    0.0    38   69.5    14    181.7    18.8   999.0 
 259    9:30    0.0    39   68.4    12    201.6    16.5   999.0 
 259    9:40    0.0    39   67.0    12    203.9    16.5   999.0 
 259    9:50    0.0    39   67.2    11    219.4    16.5   999.0 
 259   10:00    0.0    40   66.7    12    231.5    18.8   999.0 
 259   10:10    0.0    40   67.3    14    238.3    23.5   999.0 
 259   10:20    0.0    41   62.4    13    225.8    18.8   999.0 
 259   10:30    0.0    41   65.1    16    250.0    25.9   999.0 
 259   10:40    0.0    42   63.1    15    248.8    23.5   999.0 
 259   10:50    0.0    42   61.4    11    242.9    18.8   999.0 
 259   11:00    0.0    43   59.8    13    257.4    23.5   999.0 
 259   11:10    0.0    44   56.5    14    263.2    21.2   999.0 
 259   11:20    0.0    46   52.8    15    254.9    23.5   999.0 
 259   11:30    0.0    47   50.8    15    255.2    21.2   999.0 
 259   11:40    0.0    47   50.8    17    262.2    25.9   999.0 
 259   11:50    0.0    48   47.9    18    267.4    25.9   999.0 
 259   12:00    0.0    49   46.8    16    261.3    23.5   999.0 
 259   12:10    0.0    50   47.0    19    265.7    25.9   999.0 
 259   12:20    0.0    51   45.5    17    265.9    23.5   999.0 
 259   12:30    0.0    50   45.0    21    264.9    28.2   999.0 
 259   12:40    0.0    51   43.1    19    269.0    33.0   999.0 
 259   12:50    0.0    51   43.4    20    268.2    28.2   999.0 
 259   13:00    0.0    51   42.6    19    266.4    23.5   999.0 
 259   13:10    0.0    52   40.9    19    265.2    28.2   999.0 
 259   13:20    0.0    52   40.8    21    263.0    28.2   999.0 
 259   13:30    0.0    52   40.5    20    265.1    25.9   999.0 
 259   13:40    0.0    50   42.7    22    262.2    35.3   999.0 
 259   13:50    0.0    50   43.7    28    265.2    42.4   999.0 
 259   14:00    0.0    52   41.5    23    265.4    33.0   999.0 
 259   14:10    0.0    52   41.1    27    264.9    33.0   999.0 
 259   14:20    0.0    52   41.3    27    265.0    40.0   999.0 
 259   14:30    0.0    53   40.7    29    264.2    40.0   999.0 
 259   14:40    0.0    52   40.7    27    265.7    33.0   999.0 
 259   14:50    0.0    51   42.4    27    265.9    37.7   999.0 
 259   15:00    0.0    50   43.4    28    265.7    35.3   999.0 
 259   15:10    0.0    50   43.1    21    269.8    28.2   999.0 
 259   15:20    0.0    50   43.2    23    268.2    30.6   999.0 
 259   15:30    0.0    51   41.2    26    265.7    40.0   999.0 
 259   15:40    0.0    52   40.6    27    265.5    35.3   999.0 
 259   15:50    0.0    51   41.9    29    265.2    40.0   999.0 
 259   16:00    0.0    51   43.3    23    264.4    30.6   999.0 
 259   16:10    0.0    51   42.5    22    265.7    30.6   999.0 
 259   16:20    0.0    52   41.4    26    264.5    35.3   999.0 
 259   16:30    0.0    51   43.6    27    264.7    35.3   999.0 
 259   16:40    0.0    51   42.7    26    263.9    35.3   999.0 
 259   16:50    0.0    51   43.8    24    263.6    33.0   999.0 
 259   17:00    0.0    51   44.2    23    263.8    30.6   999.0 
 259   17:10    0.0    51   44.3    16    283.9    21.2   999.0 
 259   17:20    0.0    50   45.8    24    261.7    35.3   999.0 
 259   17:30    0.0    50   47.3    22    265.2    30.6   999.0 
 259   17:40    0.0    49   48.1    19    262.0    25.9   999.0 
 259   17:50    0.0    49   49.8    20    265.1    23.5   999.0 
 259   18:00    0.0    48   51.2    16    264.8    21.2   999.0 
 259   18:10    0.0    47   54.1    16    257.5    21.2   999.0 
 259   18:20    0.0    46   55.6    17    264.1    23.5   999.0 
 259   18:30    0.0    46   57.0    19    268.6    23.5   999.0 
 259   18:40    0.0    45   58.8    15    252.9    21.2   999.0 
 259   18:50    0.0    45   60.8    17    262.9    21.2   999.0 
 259   19:00    0.0    44   62.8    13    244.9    18.8   999.0 
 259   19:10    0.0    43   63.8    17    258.2    21.2   999.0 
 259   19:20    0.0    43   64.7    14    248.7    18.8   999.0 
 259   19:30    0.0    41   68.9    10    217.6    16.5   999.0 
 259   19:40    0.0    40   70.8     9    214.8    11.8   999.0 
 259   19:50    0.0    40   72.7    12    209.6    16.5   999.0 
 259   20:00    0.0    40   74.9    12    211.7    14.1   999.0 
 259   20:10    0.0    40   75.4    12    217.8    14.1   999.0 
 259   20:20    0.0    40   76.3    15    216.8    21.2   999.0 
 259   20:30    0.0    40   77.1    14    217.2    16.5   999.0 
 259   20:40    0.0    39   78.3    16    229.2    18.8   999.0 
 259   20:50    0.0    39   79.0    15    228.5    18.8   999.0 
 259   21:00    0.0    39   80.2    13    223.9    18.8   999.0 
 259   21:10    0.0    39   80.1    12    229.8    18.8   999.0 

Return to White Mountain graphs page.


Western Regional Climate Center,wrcc@dri.edu